createdAt,value
2023-05-22T00:00:07.732Z,3.55
2023-05-22T00:02:43.303Z,4.35
2023-05-22T00:05:11.447Z,4.30
2023-05-22T00:07:39.077Z,4.70
2023-05-22T00:10:06.213Z,3.78
2023-05-22T00:12:33.122Z,3.28
2023-05-22T00:14:59.651Z,4.22
2023-05-22T00:17:26.607Z,4.20
2023-05-22T00:19:56.038Z,3.60
2023-05-22T00:22:22.635Z,3.92
2023-05-22T00:24:49.215Z,3.95
2023-05-22T00:27:15.758Z,4.18
2023-05-22T00:29:42.319Z,3.63
2023-05-22T00:32:08.864Z,4.28
2023-05-22T00:34:35.432Z,4.97
2023-05-22T00:37:02.029Z,4.30
2023-05-22T00:39:28.560Z,5.28
2023-05-22T00:41:55.149Z,5.35
2023-05-22T00:44:21.692Z,4.40
2023-05-22T00:46:48.375Z,4.13
2023-05-22T00:49:14.906Z,3.95
2023-05-22T00:51:41.469Z,4.80
2023-05-22T00:54:08.238Z,4.88
2023-05-22T00:56:34.861Z,4.95
2023-05-22T00:59:01.473Z,5.32
2023-05-22T01:01:33.821Z,4.80
2023-05-22T01:04:02.237Z,5.07
2023-05-22T01:06:28.898Z,4.85
2023-05-22T01:08:55.430Z,4.45
2023-05-22T01:11:44.771Z,4.50
2023-05-22T01:14:18.310Z,4.60
2023-05-22T01:16:54.880Z,4.68
2023-05-22T01:19:47.729Z,3.85
2023-05-22T01:22:17.497Z,4.45
2023-05-22T01:25:02.829Z,4.50
2023-05-22T01:27:35.284Z,4.72
2023-05-22T01:30:21.246Z,4.25
2023-05-22T01:32:48.781Z,4.78
2023-05-22T01:35:17.605Z,4.43
2023-05-22T01:37:44.620Z,4.07
2023-05-22T01:40:12.297Z,3.55
2023-05-22T01:42:41.331Z,6.07
2023-05-22T01:45:11.796Z,3.85
2023-05-22T01:47:38.357Z,4.22
2023-05-22T01:50:05.834Z,5.03
2023-05-22T01:52:52.462Z,5.20
2023-05-22T01:55:21.355Z,3.85
2023-05-22T01:57:53.072Z,4.70
2023-05-22T02:00:20.738Z,4.70
2023-05-22T02:02:48.921Z,4.90
2023-05-22T02:05:18.931Z,4.00
2023-05-22T02:07:46.240Z,4.40
2023-05-22T02:10:13.371Z,5.13
2023-05-22T02:12:39.993Z,5.15
2023-05-22T02:15:08.291Z,4.32
2023-05-22T02:17:40.427Z,4.40
2023-05-22T02:20:14.514Z,5.32
2023-05-22T02:22:45.262Z,5.03
2023-05-22T02:25:14.648Z,5.18
2023-05-22T02:27:45.301Z,4.75
2023-05-22T02:30:12.410Z,4.30
2023-05-22T02:32:39.576Z,4.55
2023-05-22T02:35:06.325Z,4.63
2023-05-22T02:37:32.866Z,4.95
2023-05-22T02:39:59.475Z,5.18
2023-05-22T02:42:26.277Z,5.25
2023-05-22T02:44:52.909Z,4.38
2023-05-22T02:47:19.466Z,4.63
2023-05-22T02:49:46.749Z,4.50
2023-05-22T02:52:13.323Z,5.23
2023-05-22T02:54:39.872Z,4.75
2023-05-22T02:57:06.496Z,6.22
2023-05-22T02:59:33.160Z,4.90
2023-05-22T03:01:59.771Z,5.05
2023-05-22T03:04:26.482Z,5.32
2023-05-22T03:06:52.997Z,4.57
2023-05-22T03:09:20.414Z,4.53
2023-05-22T03:11:47.071Z,4.82
2023-05-22T03:14:13.615Z,4.30
2023-05-22T03:16:40.295Z,4.80
2023-05-22T03:19:07.595Z,5.25
2023-05-22T03:21:34.172Z,4.77
2023-05-22T03:24:00.864Z,5.65
2023-05-22T03:26:28.461Z,4.75
2023-05-22T03:28:55.581Z,5.53
2023-05-22T03:31:22.965Z,5.28
2023-05-22T03:33:49.594Z,5.60
2023-05-22T03:36:16.542Z,5.38
2023-05-22T03:38:43.096Z,5.35
2023-05-22T03:41:09.609Z,5.63
2023-05-22T03:43:36.190Z,4.45
2023-05-22T03:46:02.744Z,5.20
2023-05-22T03:48:29.336Z,5.50
2023-05-22T03:50:55.920Z,5.15
2023-05-22T03:53:22.402Z,5.22
2023-05-22T03:55:48.954Z,6.20
2023-05-22T03:58:15.595Z,5.75
2023-05-22T04:00:42.651Z,5.47
2023-05-22T04:03:13.155Z,5.50
2023-05-22T04:05:39.870Z,5.22
2023-05-22T04:08:06.449Z,5.13
2023-05-22T04:10:33.110Z,5.63
2023-05-22T04:12:59.691Z,5.88
2023-05-22T04:15:26.647Z,4.97
2023-05-22T04:17:54.668Z,5.32
2023-05-22T04:20:22.343Z,5.65
2023-05-22T04:22:49.056Z,5.18
2023-05-22T04:25:15.841Z,5.25
2023-05-22T04:27:42.546Z,4.53
2023-05-22T04:30:10.662Z,5.53
2023-05-22T04:35:03.915Z,4.88
2023-05-22T04:37:31.826Z,5.72
2023-05-22T04:40:04.469Z,5.72
2023-05-22T04:42:31.054Z,5.50
2023-05-22T04:45:01.083Z,4.75
2023-05-22T04:47:31.869Z,5.10
2023-05-22T04:50:00.099Z,4.97
2023-05-22T04:52:26.958Z,6.20
2023-05-22T04:54:54.568Z,5.35
2023-05-22T04:57:21.736Z,6.32
2023-05-22T04:59:48.599Z,6.15
2023-05-22T05:02:15.134Z,4.85
2023-05-22T05:04:41.680Z,5.20
2023-05-22T05:07:08.995Z,4.97
2023-05-22T05:09:35.751Z,5.20
2023-05-22T05:12:02.453Z,5.32
2023-05-22T05:14:29.022Z,5.40
2023-05-22T05:16:57.112Z,5.35
2023-05-22T05:21:50.362Z,5.15
2023-05-22T05:24:19.993Z,5.53
2023-05-22T05:26:46.557Z,5.63
2023-05-22T05:29:13.222Z,5.10
2023-05-22T05:31:39.898Z,4.10
2023-05-22T05:34:06.465Z,5.10
2023-05-22T05:36:33.048Z,5.28
2023-05-22T05:38:59.657Z,5.40
2023-05-22T05:41:27.081Z,4.95
2023-05-22T05:43:53.783Z,5.07
2023-05-22T05:46:20.445Z,3.90
2023-05-22T05:48:47.112Z,5.18
2023-05-22T05:51:13.767Z,5.10
2023-05-22T05:53:43.182Z,5.82
2023-05-22T05:56:09.861Z,5.90
2023-05-22T05:58:36.895Z,4.80
2023-05-22T06:01:03.811Z,5.60
2023-05-22T06:03:31.004Z,4.72
2023-05-22T06:05:57.777Z,4.90
2023-05-22T06:08:24.563Z,4.38
2023-05-22T06:10:51.167Z,4.22
2023-05-22T06:13:17.738Z,4.15
2023-05-22T06:15:44.268Z,4.80
2023-05-22T06:18:11.173Z,5.07
2023-05-22T06:20:39.592Z,4.50
2023-05-22T06:23:06.378Z,4.32
2023-05-22T06:25:33.159Z,4.13
2023-05-22T06:27:59.696Z,4.38
2023-05-22T06:30:38.982Z,4.25
2023-05-22T06:33:06.527Z,4.00
2023-05-22T06:35:33.138Z,3.65
2023-05-22T06:37:59.752Z,4.07
2023-05-22T06:40:26.388Z,3.97
2023-05-22T06:42:53.075Z,4.45
2023-05-22T06:45:20.112Z,4.38
2023-05-22T06:47:46.888Z,4.68
2023-05-22T06:50:13.577Z,4.63
2023-05-22T06:52:40.113Z,4.72
2023-05-22T06:55:07.122Z,3.92
2023-05-22T06:57:33.901Z,3.78
2023-05-22T07:00:01.202Z,4.55
2023-05-22T07:02:27.865Z,4.27
2023-05-22T07:04:54.645Z,3.78
2023-05-22T07:07:21.320Z,3.55
2023-05-22T07:09:47.949Z,3.75
2023-05-22T07:12:14.706Z,3.28
2023-05-22T07:14:41.317Z,4.05
2023-05-22T07:17:08.128Z,3.58
2023-05-22T07:19:35.865Z,3.97
2023-05-22T07:22:02.537Z,3.60
2023-05-22T07:24:29.182Z,3.58
2023-05-22T07:26:55.811Z,3.63
2023-05-22T07:29:23.264Z,3.47
2023-05-22T07:31:50.090Z,3.30
2023-05-22T07:34:17.071Z,3.78
2023-05-22T07:36:43.798Z,3.95
2023-05-22T07:39:10.411Z,3.45
2023-05-22T07:41:37.070Z,3.65
2023-05-22T07:44:03.607Z,3.83
2023-05-22T07:46:30.307Z,5.13
2023-05-22T07:48:56.976Z,4.00
2023-05-22T07:51:23.858Z,3.90
2023-05-22T07:53:50.573Z,3.95
2023-05-22T07:56:17.783Z,3.25
2023-05-22T07:58:44.470Z,3.20
2023-05-22T08:01:11.294Z,3.88
2023-05-22T08:03:38.119Z,3.47
2023-05-22T08:06:04.996Z,3.75
2023-05-22T08:08:32.158Z,3.70
2023-05-22T08:13:28.198Z,3.60
2023-05-22T08:16:00.311Z,3.72
2023-05-22T08:18:29.211Z,3.85
2023-05-22T08:20:56.329Z,3.92
2023-05-22T08:23:23.067Z,4.03
2023-05-22T08:25:50.405Z,3.60
2023-05-22T08:28:17.249Z,3.67
2023-05-22T08:30:44.220Z,3.88
2023-05-22T08:33:12.192Z,3.72
2023-05-22T08:35:39.136Z,3.88
2023-05-22T08:38:05.719Z,3.13
2023-05-22T08:40:38.122Z,3.38
2023-05-22T08:43:05.319Z,3.80
2023-05-22T08:45:34.309Z,3.03
2023-05-22T08:48:07.555Z,3.53
2023-05-22T08:50:34.865Z,3.58
2023-05-22T08:53:04.599Z,3.10
2023-05-22T08:55:31.142Z,3.03
2023-05-22T08:57:57.813Z,3.38
2023-05-22T09:00:24.441Z,2.60
2023-05-22T09:02:52.542Z,3.83
2023-05-22T09:05:19.461Z,3.30
2023-05-22T09:07:46.066Z,3.60
2023-05-22T09:10:12.575Z,3.13
2023-05-22T09:12:39.225Z,2.80
2023-05-22T09:15:10.370Z,3.10
2023-05-22T09:17:40.865Z,2.78
2023-05-22T09:20:08.089Z,3.13
2023-05-22T09:22:38.441Z,2.97
2023-05-22T09:25:05.407Z,2.95
2023-05-22T09:27:32.111Z,2.80
2023-05-22T09:29:58.636Z,2.58
2023-05-22T09:32:25.464Z,3.47
2023-05-22T09:34:52.184Z,2.70
2023-05-22T09:37:18.778Z,2.67
2023-05-22T09:39:46.478Z,3.75
2023-05-22T09:42:15.169Z,2.55
2023-05-22T09:44:42.810Z,3.58
2023-05-22T09:47:12.429Z,3.30
2023-05-22T09:49:42.720Z,2.92
2023-05-22T09:52:09.754Z,2.70
2023-05-22T09:54:38.168Z,2.97
2023-05-22T09:57:07.158Z,3.20
2023-05-22T09:59:35.200Z,2.95
2023-05-22T10:04:31.688Z,2.92
2023-05-22T10:07:02.238Z,2.55
2023-05-22T10:09:33.846Z,2.15
2023-05-22T10:12:04.434Z,3.03
2023-05-22T10:14:31.615Z,3.00
2023-05-22T10:17:02.152Z,2.90
2023-05-22T10:19:31.285Z,2.97
2023-05-22T10:22:00.031Z,2.90
2023-05-22T10:24:26.840Z,3.00
2023-05-22T10:26:53.556Z,3.30
2023-05-22T10:29:25.723Z,3.10
2023-05-22T10:31:58.265Z,2.80
2023-05-22T10:34:29.793Z,3.58
2023-05-22T10:37:12.992Z,3.28
2023-05-22T10:39:49.090Z,3.15
2023-05-22T10:42:16.033Z,2.95
2023-05-22T10:44:43.399Z,2.92
2023-05-22T10:47:11.520Z,2.88
2023-05-22T10:49:39.249Z,3.05
2023-05-22T10:52:08.311Z,2.97
2023-05-22T10:54:43.982Z,2.63
2023-05-22T10:57:17.859Z,2.85
2023-05-22T10:59:44.831Z,2.58
2023-05-22T11:02:21.746Z,3.28
2023-05-22T11:04:49.201Z,3.20
2023-05-22T11:07:16.054Z,2.92
2023-05-22T11:09:44.169Z,2.60
2023-05-22T11:12:27.216Z,3.15
2023-05-22T11:14:59.807Z,3.45
2023-05-22T11:17:27.840Z,3.28
2023-05-22T11:20:02.002Z,3.30
2023-05-22T11:22:36.731Z,2.80
2023-05-22T11:25:04.324Z,3.00
2023-05-22T11:27:31.324Z,3.25
2023-05-22T11:29:59.436Z,2.97
2023-05-22T11:32:26.525Z,3.25
2023-05-22T11:34:54.074Z,3.07
2023-05-22T11:37:20.854Z,2.85
2023-05-22T11:39:57.650Z,3.25
2023-05-22T11:42:24.740Z,3.33
2023-05-22T11:44:51.421Z,3.37
2023-05-22T11:47:18.488Z,3.17
2023-05-22T11:49:45.118Z,3.20
2023-05-22T11:52:11.748Z,3.35
2023-05-22T11:54:39.004Z,2.95
2023-05-22T11:57:06.961Z,2.80
2023-05-22T11:59:33.884Z,2.97
2023-05-22T12:02:00.780Z,3.25
2023-05-22T12:04:27.617Z,3.05
2023-05-22T12:06:55.059Z,3.20
2023-05-22T12:09:22.050Z,2.75
2023-05-22T12:11:49.030Z,4.32
2023-05-22T12:14:15.686Z,3.38
2023-05-22T12:16:42.261Z,2.85
2023-05-22T12:19:09.938Z,2.90
2023-05-22T12:21:38.360Z,3.15
2023-05-22T12:24:06.273Z,3.33
2023-05-22T12:28:59.574Z,3.47
2023-05-22T12:31:26.348Z,3.10
2023-05-22T12:33:56.536Z,3.20
2023-05-22T12:36:36.305Z,3.55
2023-05-22T12:39:06.874Z,2.97
2023-05-22T12:41:33.534Z,3.72
2023-05-22T12:44:02.276Z,3.50
2023-05-22T12:46:30.900Z,3.28
2023-05-22T12:48:57.836Z,3.15
2023-05-22T12:51:31.511Z,3.15
2023-05-22T12:54:04.708Z,3.15
2023-05-22T12:56:31.902Z,3.60
2023-05-22T12:58:58.860Z,3.60
2023-05-22T13:01:25.794Z,3.08
2023-05-22T13:03:52.718Z,3.05
2023-05-22T13:06:19.721Z,3.38
2023-05-22T13:08:46.528Z,3.38
2023-05-22T13:11:13.260Z,3.45
2023-05-22T13:13:40.043Z,3.17
2023-05-22T13:16:06.877Z,3.47
2023-05-22T13:18:33.448Z,3.55
2023-05-22T13:21:00.756Z,3.25
2023-05-22T13:23:27.346Z,3.53
2023-05-22T13:25:54.003Z,3.53
2023-05-22T13:28:20.962Z,3.78
2023-05-22T13:30:47.498Z,3.47
2023-05-22T13:33:14.113Z,3.80
2023-05-22T13:35:41.009Z,3.30
2023-05-22T13:38:07.927Z,3.10
2023-05-22T13:40:34.591Z,3.25
2023-05-22T13:43:01.405Z,3.40
2023-05-22T13:45:28.035Z,3.88
2023-05-22T13:47:55.994Z,3.28
2023-05-22T13:52:49.171Z,3.17
2023-05-22T13:55:15.923Z,3.10
2023-05-22T13:57:42.517Z,2.70
2023-05-22T14:00:10.157Z,3.83
2023-05-22T14:02:36.826Z,3.47
2023-05-22T14:05:04.796Z,5.65
2023-05-22T14:07:31.374Z,4.75
2023-05-22T14:09:59.743Z,5.20
2023-05-22T14:12:27.899Z,4.32
2023-05-22T14:14:54.557Z,4.47
2023-05-22T14:17:21.122Z,4.55
2023-05-22T14:19:47.697Z,5.32
2023-05-22T14:22:14.258Z,4.47
2023-05-22T14:24:41.003Z,3.65
2023-05-22T14:27:07.552Z,4.65
2023-05-22T14:29:34.103Z,4.65
2023-05-22T14:32:04.735Z,4.80
2023-05-22T14:34:31.655Z,4.70
2023-05-22T14:36:58.568Z,4.00
2023-05-22T14:39:25.475Z,4.13
2023-05-22T14:41:52.729Z,3.90
2023-05-22T14:44:19.699Z,3.43
2023-05-22T14:46:46.463Z,4.10
2023-05-22T14:49:14.147Z,3.75
2023-05-22T14:51:40.912Z,4.30
2023-05-22T14:54:08.070Z,3.40
2023-05-22T14:56:34.602Z,4.10
2023-05-22T14:59:01.257Z,3.95
2023-05-22T15:01:27.814Z,4.88
2023-05-22T15:03:54.353Z,9.82
2023-05-22T15:06:20.959Z,6.10
2023-05-22T15:08:47.552Z,3.47
2023-05-22T15:11:14.088Z,4.15
2023-05-22T15:13:40.911Z,4.03
2023-05-22T15:16:07.496Z,4.03
2023-05-22T15:18:34.107Z,3.90
2023-05-22T15:21:01.178Z,4.10
2023-05-22T15:23:27.717Z,3.95
2023-05-22T15:25:54.501Z,3.80
2023-05-22T15:28:21.599Z,4.03
2023-05-22T15:30:48.208Z,3.55
2023-05-22T15:33:15.208Z,3.55
2023-05-22T15:35:43.508Z,3.85
2023-05-22T15:38:12.656Z,3.92
2023-05-22T15:40:40.587Z,4.22
2023-05-22T15:43:07.256Z,4.35
2023-05-22T15:45:34.642Z,4.70
2023-05-22T15:48:01.308Z,3.58
2023-05-22T15:50:28.134Z,3.65
2023-05-22T15:52:54.676Z,4.80
2023-05-22T15:55:21.325Z,4.65
2023-05-22T15:57:47.854Z,4.13
2023-05-22T16:00:15.638Z,4.03
2023-05-22T16:02:43.678Z,3.80
2023-05-22T16:05:10.296Z,3.85
2023-05-22T16:07:37.020Z,3.95
2023-05-22T16:10:04.101Z,4.07
2023-05-22T16:12:30.749Z,4.00
2023-05-22T16:15:00.358Z,5.00
2023-05-22T16:17:27.177Z,3.80
2023-05-22T16:19:53.769Z,4.28
2023-05-22T16:22:21.351Z,6.90
2023-05-22T16:24:48.955Z,3.78
2023-05-22T16:27:15.596Z,3.88
2023-05-22T16:29:42.214Z,3.85
2023-05-22T16:32:08.814Z,2.78
2023-05-22T16:34:36.561Z,3.65
2023-05-22T16:37:03.198Z,3.42
2023-05-22T16:39:29.750Z,3.10
2023-05-22T16:41:56.238Z,3.20
2023-05-22T16:44:22.759Z,3.40
2023-05-22T16:46:50.009Z,3.80
2023-05-22T16:49:16.547Z,4.30
2023-05-22T16:51:44.409Z,3.97
2023-05-22T16:54:11.133Z,4.13
2023-05-22T16:56:37.760Z,4.18
2023-05-22T16:59:05.211Z,3.63
2023-05-22T17:01:31.905Z,4.13
2023-05-22T17:03:58.458Z,4.32
2023-05-22T17:06:25.049Z,4.13
2023-05-22T17:08:51.647Z,3.17
2023-05-22T17:11:18.315Z,3.15
2023-05-22T17:13:44.829Z,4.18
2023-05-22T17:16:11.481Z,4.25
2023-05-22T17:18:38.003Z,3.60
2023-05-22T17:21:04.659Z,3.85
2023-05-22T17:23:31.441Z,3.63
2023-05-22T17:25:57.949Z,3.75
2023-05-22T17:28:24.485Z,3.65
2023-05-22T17:30:51.018Z,4.13
2023-05-22T17:33:17.571Z,4.05
2023-05-22T17:35:44.268Z,4.03
2023-05-22T17:38:11.214Z,3.80
2023-05-22T17:40:44.594Z,3.78
2023-05-22T17:43:11.773Z,4.03
2023-05-22T17:45:38.308Z,3.97
2023-05-22T17:48:04.992Z,4.45
2023-05-22T17:50:31.596Z,4.22
2023-05-22T17:52:58.136Z,4.43
2023-05-22T17:55:24.670Z,4.63
2023-05-22T17:57:51.303Z,4.90
2023-05-22T18:00:18.022Z,4.22
2023-05-22T18:02:44.810Z,4.13
2023-05-22T18:05:11.445Z,4.45
2023-05-22T18:07:38.024Z,4.47
2023-05-22T18:10:05.369Z,3.97
2023-05-22T18:12:32.382Z,4.27
2023-05-22T18:14:59.215Z,4.97
2023-05-22T18:17:25.858Z,4.28
2023-05-22T18:19:52.455Z,4.63
2023-05-22T18:22:19.080Z,4.03
2023-05-22T18:24:46.680Z,4.32
2023-05-22T18:27:13.169Z,3.95
2023-05-22T18:29:40.432Z,4.13
2023-05-22T18:32:09.917Z,3.70
2023-05-22T18:34:37.685Z,4.25
2023-05-22T18:37:04.746Z,4.20
2023-05-22T18:39:31.378Z,4.38
2023-05-22T18:41:58.633Z,5.05
2023-05-22T18:44:25.365Z,4.37
2023-05-22T18:46:51.879Z,4.57
2023-05-22T18:49:18.503Z,5.07
2023-05-22T18:51:45.059Z,5.10
2023-05-22T18:54:11.629Z,4.65
2023-05-22T18:56:38.824Z,5.30
2023-05-22T18:59:05.498Z,5.10
2023-05-22T19:01:32.513Z,5.68
2023-05-22T19:03:59.112Z,5.20
2023-05-22T19:06:26.341Z,5.05
2023-05-22T19:08:52.878Z,5.50
2023-05-22T19:11:19.413Z,5.07
2023-05-22T19:13:45.927Z,5.47
2023-05-22T19:16:13.324Z,4.65
2023-05-22T19:18:39.945Z,5.22
2023-05-22T19:21:06.538Z,5.25
2023-05-22T19:23:33.169Z,4.63
2023-05-22T19:26:00.017Z,5.25
2023-05-22T19:28:26.576Z,5.13
2023-05-22T19:30:54.043Z,4.28
2023-05-22T19:33:24.777Z,4.68
2023-05-22T19:35:51.368Z,4.57
2023-05-22T19:38:18.086Z,5.30
2023-05-22T19:40:44.655Z,4.60
2023-05-22T19:43:11.334Z,5.25
2023-05-22T19:45:37.978Z,4.78
2023-05-22T19:48:04.774Z,4.55
2023-05-22T19:50:32.886Z,5.03
2023-05-22T19:52:59.392Z,5.22
2023-05-22T19:55:25.979Z,4.93
2023-05-22T19:57:52.524Z,5.80
2023-05-22T20:00:19.515Z,5.03
2023-05-22T20:02:46.072Z,4.47
2023-05-22T20:05:15.672Z,4.85
2023-05-22T20:07:42.810Z,4.88
2023-05-22T20:10:10.267Z,5.15
2023-05-22T20:12:37.271Z,5.43
2023-05-22T20:15:04.630Z,5.88
2023-05-22T20:17:31.191Z,5.10
2023-05-22T20:19:58.789Z,5.80
2023-05-22T20:22:25.761Z,5.03
2023-05-22T20:24:52.638Z,5.38
2023-05-22T20:27:19.273Z,5.75
2023-05-22T20:29:45.854Z,5.40
2023-05-22T20:32:12.572Z,5.85
2023-05-22T20:34:40.156Z,6.55
2023-05-22T20:37:08.999Z,5.35
2023-05-22T20:39:35.583Z,5.18
2023-05-22T20:42:02.973Z,5.65
2023-05-22T20:44:31.738Z,5.33
2023-05-22T20:46:58.478Z,6.13
2023-05-22T20:49:25.075Z,5.68
2023-05-22T20:51:54.457Z,5.10
2023-05-22T20:54:21.203Z,6.05
2023-05-22T20:56:47.847Z,4.65
2023-05-22T20:59:14.500Z,6.35
2023-05-22T21:01:41.117Z,5.65
2023-05-22T21:04:07.851Z,5.28
2023-05-22T21:06:34.511Z,5.65
2023-05-22T21:09:01.788Z,6.43
2023-05-22T21:11:28.534Z,5.83
2023-05-22T21:13:55.010Z,5.32
2023-05-22T21:16:21.558Z,5.72
2023-05-22T21:18:48.279Z,6.28
2023-05-22T21:21:17.808Z,5.07
2023-05-22T21:23:44.427Z,6.13
2023-05-22T21:26:11.018Z,6.15
2023-05-22T21:28:37.694Z,5.72
2023-05-22T21:31:04.303Z,5.35
2023-05-22T21:33:31.029Z,5.85
2023-05-22T21:35:57.565Z,5.88
2023-05-22T21:38:24.098Z,5.78
2023-05-22T21:40:50.598Z,5.57
2023-05-22T21:43:17.650Z,5.10
2023-05-22T21:45:44.183Z,5.38
2023-05-22T21:48:11.553Z,5.28
2023-05-22T21:50:38.301Z,5.87
2023-05-22T21:53:05.091Z,5.28
2023-05-22T21:55:32.302Z,5.03
2023-05-22T21:57:58.831Z,5.45
2023-05-22T22:00:25.399Z,5.80
2023-05-22T22:02:52.121Z,5.70
2023-05-22T22:05:20.366Z,5.40
2023-05-22T22:10:13.559Z,6.10
2023-05-22T22:12:40.194Z,5.45
2023-05-22T22:15:07.420Z,5.93
2023-05-22T22:17:34.845Z,5.45
2023-05-22T22:20:01.511Z,6.00
2023-05-22T22:22:28.056Z,5.60
2023-05-22T22:24:54.558Z,5.70
2023-05-22T22:27:21.211Z,5.72
2023-05-22T22:29:47.822Z,5.55
2023-05-22T22:32:14.603Z,6.05
2023-05-22T22:34:42.098Z,5.97
2023-05-22T22:37:08.616Z,6.07
2023-05-22T22:39:35.128Z,5.57
2023-05-22T22:42:04.961Z,5.43
2023-05-22T22:44:32.310Z,6.68
2023-05-22T22:46:58.932Z,6.50
2023-05-22T22:49:25.488Z,5.55
2023-05-22T22:51:52.576Z,5.90
2023-05-22T22:54:19.086Z,5.63
2023-05-22T22:56:49.844Z,6.07
2023-05-22T22:59:16.876Z,5.70
2023-05-22T23:01:43.484Z,6.22
2023-05-22T23:04:10.081Z,7.15
2023-05-22T23:06:36.725Z,6.10
2023-05-22T23:09:04.025Z,6.93
2023-05-22T23:11:39.595Z,6.43
2023-05-22T23:14:07.548Z,7.32
2023-05-22T23:16:36.051Z,7.32
2023-05-22T23:19:06.446Z,6.38
2023-05-22T23:21:33.402Z,7.30
2023-05-22T23:24:00.710Z,6.28
2023-05-22T23:26:31.472Z,6.77
2023-05-22T23:29:01.362Z,7.03
2023-05-22T23:31:31.217Z,6.07
2023-05-22T23:33:58.242Z,6.97
2023-05-22T23:36:25.125Z,6.18
2023-05-22T23:38:51.785Z,6.57
2023-05-22T23:41:18.723Z,7.25
2023-05-22T23:43:45.767Z,7.43
2023-05-22T23:46:13.367Z,7.28
2023-05-22T23:48:40.424Z,7.07
2023-05-22T23:51:09.055Z,6.90
2023-05-22T23:53:36.352Z,7.47
2023-05-22T23:56:03.505Z,6.80
2023-05-22T23:58:30.320Z,7.35
